sensor_id;sensor_type;location;lat;lon;timestamp;pressure;altitude;pressure_sealevel;temperature;humidity
75972;BME280;64651;47.540;19.088;2023-07-13T00:04:59;100180.44;;;23.24;79.40
75972;BME280;64651;47.540;19.088;2023-07-13T00:10:03;100161.09;;;22.99;82.41
75972;BME280;64651;47.540;19.088;2023-07-13T00:15:17;100184.59;;;22.91;82.33
75972;BME280;64651;47.540;19.088;2023-07-13T00:20:25;100143.38;;;22.95;80.99
75972;BME280;64651;47.540;19.088;2023-07-13T00:25:27;100128.19;;;22.96;78.62
75972;BME280;64651;47.540;19.088;2023-07-13T00:30:33;100099.59;;;22.91;78.67
75972;BME280;64651;47.540;19.088;2023-07-13T00:35:35;100075.53;;;22.90;79.51
75972;BME280;64651;47.540;19.088;2023-07-13T00:40:37;100050.94;;;22.83;79.27
75972;BME280;64651;47.540;19.088;2023-07-13T00:50:48;100033.81;;;22.50;80.45
75972;BME280;64651;47.540;19.088;2023-07-13T00:55:53;100036.81;;;22.41;81.12
75972;BME280;64651;47.540;19.088;2023-07-13T01:00:56;100022.06;;;22.25;81.49
75972;BME280;64651;47.540;19.088;2023-07-13T01:05:59;100014.72;;;22.20;81.02
75972;BME280;64651;47.540;19.088;2023-07-13T01:11:01;99999.84;;;22.36;81.04
75972;BME280;64651;47.540;19.088;2023-07-13T01:16:13;100019.19;;;22.41;78.81
75972;BME280;64651;47.540;19.088;2023-07-13T01:21:17;100023.87;;;22.17;80.71
75972;BME280;64651;47.540;19.088;2023-07-13T01:26:21;100037.16;;;22.20;80.14
75972;BME280;64651;47.540;19.088;2023-07-13T01:31:23;100020.22;;;22.13;80.23
75972;BME280;64651;47.540;19.088;2023-07-13T01:36:25;100026.38;;;22.03;80.81
75972;BME280;64651;47.540;19.088;2023-07-13T01:41:27;100004.69;;;22.00;81.32
75972;BME280;64651;47.540;19.088;2023-07-13T01:46:30;100012.81;;;21.90;81.67
75972;BME280;64651;47.540;19.088;2023-07-13T01:51:33;100007.84;;;21.99;81.66
75972;BME280;64651;47.540;19.088;2023-07-13T01:56:35;99991.53;;;21.69;83.32
75972;BME280;64651;47.540;19.088;2023-07-13T02:01:37;99987.56;;;21.55;84.11
75972;BME280;64651;47.540;19.088;2023-07-13T02:06:39;99971.97;;;21.38;85.31
75972;BME280;64651;47.540;19.088;2023-07-13T02:11:42;99978.94;;;21.28;86.84
75972;BME280;64651;47.540;19.088;2023-07-13T02:16:44;99979.91;;;21.52;86.95
75972;BME280;64651;47.540;19.088;2023-07-13T02:21:46;99975.03;;;21.49;86.69
75972;BME280;64651;47.540;19.088;2023-07-13T02:26:48;99986.56;;;21.47;86.31
75972;BME280;64651;47.540;19.088;2023-07-13T02:31:50;99991.94;;;21.21;87.36
75972;BME280;64651;47.540;19.088;2023-07-13T02:36:53;100000.94;;;21.30;87.39
75972;BME280;64651;47.540;19.088;2023-07-13T02:41:55;99997.72;;;21.28;87.64
75972;BME280;64651;47.540;19.088;2023-07-13T02:46:57;100012.69;;;21.20;89.56
75972;BME280;64651;47.540;19.088;2023-07-13T02:51:59;99989.31;;;21.28;91.10
75972;BME280;64651;47.540;19.088;2023-07-13T02:57:02;100013.78;;;21.15;91.67
75972;BME280;64651;47.540;19.088;2023-07-13T03:02:04;100012.47;;;20.97;93.56
75972;BME280;64651;47.540;19.088;2023-07-13T03:07:07;100015.25;;;20.97;94.16
75972;BME280;64651;47.540;19.088;2023-07-13T03:12:09;100026.72;;;20.92;95.06
75972;BME280;64651;47.540;19.088;2023-07-13T03:17:11;100039.22;;;20.82;95.55
75972;BME280;64651;47.540;19.088;2023-07-13T03:22:14;100043.66;;;20.99;95.37
75972;BME280;64651;47.540;19.088;2023-07-13T03:27:17;100042.22;;;21.05;94.32
75972;BME280;64651;47.540;19.088;2023-07-13T03:32:20;100036.16;;;21.15;93.15
75972;BME280;64651;47.540;19.088;2023-07-13T03:37:22;100037.28;;;21.14;92.86
75972;BME280;64651;47.540;19.088;2023-07-13T03:42:24;100032.34;;;21.23;92.21
75972;BME280;64651;47.540;19.088;2023-07-13T03:47:26;100019.09;;;21.52;90.33
75972;BME280;64651;47.540;19.088;2023-07-13T03:52:29;100039.31;;;21.61;89.31
75972;BME280;64651;47.540;19.088;2023-07-13T03:57:31;100043.00;;;21.80;87.67
75972;BME280;64651;47.540;19.088;2023-07-13T04:02:33;100053.56;;;22.03;85.88
75972;BME280;64651;47.540;19.088;2023-07-13T04:07:35;100051.16;;;22.20;84.17
75972;BME280;64651;47.540;19.088;2023-07-13T04:12:37;100041.75;;;22.29;83.19
75972;BME280;64651;47.540;19.088;2023-07-13T04:17:39;100079.69;;;22.42;81.98
75972;BME280;64651;47.540;19.088;2023-07-13T04:22:42;100113.84;;;22.47;81.30
75972;BME280;64651;47.540;19.088;2023-07-13T04:27:44;100127.59;;;22.52;80.74
75972;BME280;64651;47.540;19.088;2023-07-13T04:32:46;100130.75;;;22.51;80.53
75972;BME280;64651;47.540;19.088;2023-07-13T04:37:49;100129.41;;;22.45;79.64
75972;BME280;64651;47.540;19.088;2023-07-13T04:42:52;100131.84;;;22.46;79.47
75972;BME280;64651;47.540;19.088;2023-07-13T04:47:54;100148.66;;;22.62;79.08
75972;BME280;64651;47.540;19.088;2023-07-13T04:52:56;100156.69;;;22.63;79.52
75972;BME280;64651;47.540;19.088;2023-07-13T04:57:59;100169.47;;;22.61;81.03
75972;BME280;64651;47.540;19.088;2023-07-13T05:03:02;100179.34;;;22.39;81.34
75972;BME280;64651;47.540;19.088;2023-07-13T05:08:05;100219.44;;;22.08;85.66
75972;BME280;64651;47.540;19.088;2023-07-13T05:13:09;100242.44;;;21.86;86.71
75972;BME280;64651;47.540;19.088;2023-07-13T05:18:11;100303.72;;;21.20;90.53
75972;BME280;64651;47.540;19.088;2023-07-13T05:23:13;100346.25;;;20.64;95.24
75972;BME280;64651;47.540;19.088;2023-07-13T05:28:15;100364.00;;;19.70;100.00
75972;BME280;64651;47.540;19.088;2023-07-13T05:33:18;100357.03;;;19.05;100.00
75972;BME280;64651;47.540;19.088;2023-07-13T05:38:20;100347.31;;;18.90;100.00
75972;BME280;64651;47.540;19.088;2023-07-13T05:43:23;100354.31;;;18.96;100.00
75972;BME280;64651;47.540;19.088;2023-07-13T05:48:25;100336.38;;;19.06;100.00
75972;BME280;64651;47.540;19.088;2023-07-13T05:53:27;100329.31;;;18.79;100.00
75972;BME280;64651;47.540;19.088;2023-07-13T05:58:29;100339.25;;;18.59;100.00
75972;BME280;64651;47.540;19.088;2023-07-13T06:03:32;100321.87;;;19.63;100.00
75972;BME280;64651;47.540;19.088;2023-07-13T06:08:35;100317.22;;;18.67;100.00
75972;BME280;64651;47.540;19.088;2023-07-13T06:13:38;100313.69;;;18.57;100.00
75972;BME280;64651;47.540;19.088;2023-07-13T06:18:40;100248.28;;;19.47;100.00
75972;BME280;64651;47.540;19.088;2023-07-13T06:23:44;100119.25;;;18.54;100.00
75972;BME280;64651;47.540;19.088;2023-07-13T06:28:47;99957.75;;;18.79;100.00
75972;BME280;64651;47.540;19.088;2023-07-13T06:33:49;100033.37;;;18.77;100.00
75972;BME280;64651;47.540;19.088;2023-07-13T06:38:58;99933.50;;;18.91;100.00
75972;BME280;64651;47.540;19.088;2023-07-13T06:44:00;99963.03;;;19.29;100.00
75972;BME280;64651;47.540;19.088;2023-07-13T06:49:03;99974.66;;;19.79;100.00
75972;BME280;64651;47.540;19.088;2023-07-13T06:54:05;99987.84;;;20.07;100.00
75972;BME280;64651;47.540;19.088;2023-07-13T06:59:07;99978.28;;;20.20;100.00
75972;BME280;64651;47.540;19.088;2023-07-13T07:04:10;99969.19;;;20.35;100.00
75972;BME280;64651;47.540;19.088;2023-07-13T07:09:12;99972.72;;;20.76;100.00
75972;BME280;64651;47.540;19.088;2023-07-13T07:14:15;99981.44;;;20.58;100.00
75972;BME280;64651;47.540;19.088;2023-07-13T07:19:17;100011.84;;;21.03;100.00
75972;BME280;64651;47.540;19.088;2023-07-13T07:24:20;100133.59;;;20.85;100.00
75972;BME280;64651;47.540;19.088;2023-07-13T07:29:22;100119.97;;;21.39;100.00
75972;BME280;64651;47.540;19.088;2023-07-13T07:34:27;100138.91;;;21.30;100.00
75972;BME280;64651;47.540;19.088;2023-07-13T07:39:30;100173.50;;;20.58;100.00
75972;BME280;64651;47.540;19.088;2023-07-13T07:44:32;100170.41;;;20.35;100.00
75972;BME280;64651;47.540;19.088;2023-07-13T07:49:36;100181.41;;;20.19;100.00
75972;BME280;64651;47.540;19.088;2023-07-13T07:54:38;100198.78;;;20.49;100.00
75972;BME280;64651;47.540;19.088;2023-07-13T07:59:43;100209.03;;;20.57;100.00
75972;BME280;64651;47.540;19.088;2023-07-13T08:04:48;100201.53;;;21.26;100.00
75972;BME280;64651;47.540;19.088;2023-07-13T08:09:53;100195.12;;;21.25;100.00
75972;BME280;64651;47.540;19.088;2023-07-13T08:14:56;100200.13;;;21.75;100.00
75972;BME280;64651;47.540;19.088;2023-07-13T08:20:03;100186.16;;;22.38;100.00
75972;BME280;64651;47.540;19.088;2023-07-13T08:25:06;100189.94;;;23.35;100.00
75972;BME280;64651;47.540;19.088;2023-07-13T08:30:09;100206.66;;;23.47;100.00
75972;BME280;64651;47.540;19.088;2023-07-13T08:35:11;100214.06;;;24.46;100.00
75972;BME280;64651;47.540;19.088;2023-07-13T08:40:16;100192.84;;;27.29;80.01
75972;BME280;64651;47.540;19.088;2023-07-13T08:45:28;100191.50;;;28.41;62.41
75972;BME280;64651;47.540;19.088;2023-07-13T08:50:36;100180.13;;;28.84;58.94
75972;BME280;64651;47.540;19.088;2023-07-13T08:56:01;100191.81;;;29.83;53.42
75972;BME280;64651;47.540;19.088;2023-07-13T09:01:05;100201.97;;;28.05;57.93
75972;BME280;64651;47.540;19.088;2023-07-13T09:06:14;100205.31;;;27.21;59.15
75972;BME280;64651;47.540;19.088;2023-07-13T09:11:47;100196.16;;;26.69;62.44
75972;BME280;64651;47.540;19.088;2023-07-13T09:16:53;100195.19;;;27.09;60.23
75972;BME280;64651;47.540;19.088;2023-07-13T09:21:57;100199.13;;;28.02;57.70
75972;BME280;64651;47.540;19.088;2023-07-13T09:27:43;100189.56;;;30.19;50.46
75972;BME280;64651;47.540;19.088;2023-07-13T09:32:50;100201.53;;;31.27;49.90
75972;BME280;64651;47.540;19.088;2023-07-13T09:37:57;100198.53;;;30.66;50.05
75972;BME280;64651;47.540;19.088;2023-07-13T09:43:03;100208.47;;;28.52;54.36
75972;BME280;64651;47.540;19.088;2023-07-13T09:48:11;100210.78;;;27.61;55.78
75972;BME280;64651;47.540;19.088;2023-07-13T09:53:17;100222.69;;;27.19;56.88
75972;BME280;64651;47.540;19.088;2023-07-13T09:58:25;100223.28;;;29.30;52.44
75972;BME280;64651;47.540;19.088;2023-07-13T10:03:33;100227.81;;;27.90;55.58
75972;BME280;64651;47.540;19.088;2023-07-13T10:08:40;100212.25;;;29.61;51.12
75972;BME280;64651;47.540;19.088;2023-07-13T10:13:44;100204.88;;;31.49;46.07
75972;BME280;64651;47.540;19.088;2023-07-13T10:18:58;100213.50;;;32.99;42.54
75972;BME280;64651;47.540;19.088;2023-07-13T10:29:11;100207.03;;;33.18;41.01
75972;BME280;64651;47.540;19.088;2023-07-13T10:34:16;100208.31;;;33.14;41.55
75972;BME280;64651;47.540;19.088;2023-07-13T10:39:26;100210.53;;;33.26;40.45
75972;BME280;64651;47.540;19.088;2023-07-13T10:44:30;100208.34;;;35.03;37.31
75972;BME280;64651;47.540;19.088;2023-07-13T10:49:34;100215.19;;;35.21;36.90
75972;BME280;64651;47.540;19.088;2023-07-13T10:54:38;100215.00;;;34.67;37.09
75972;BME280;64651;47.540;19.088;2023-07-13T10:59:40;100207.44;;;34.44;37.78
75972;BME280;64651;47.540;19.088;2023-07-13T11:04:47;100226.72;;;33.72;38.51
75972;BME280;64651;47.540;19.088;2023-07-13T11:09:54;100211.22;;;33.89;37.26
75972;BME280;64651;47.540;19.088;2023-07-13T11:25:28;100208.22;;;34.77;34.96
75972;BME280;64651;47.540;19.088;2023-07-13T11:36:03;100184.66;;;34.57;35.68
75972;BME280;64651;47.540;19.088;2023-07-13T11:41:23;100178.97;;;35.31;34.63
75972;BME280;64651;47.540;19.088;2023-07-13T11:46:28;100180.78;;;35.09;33.60
75972;BME280;64651;47.540;19.088;2023-07-13T11:51:32;100182.94;;;35.21;33.42
75972;BME280;64651;47.540;19.088;2023-07-13T11:56:36;100208.75;;;35.17;33.57
75972;BME280;64651;47.540;19.088;2023-07-13T12:01:45;100192.19;;;34.51;34.23
75972;BME280;64651;47.540;19.088;2023-07-13T12:06:55;100186.16;;;36.28;32.25
75972;BME280;64651;47.540;19.088;2023-07-13T12:11:58;100191.53;;;33.39;36.50
75972;BME280;64651;47.540;19.088;2023-07-13T12:17:09;100182.03;;;35.08;34.61
75972;BME280;64651;47.540;19.088;2023-07-13T12:22:17;100165.97;;;34.04;34.58
75972;BME280;64651;47.540;19.088;2023-07-13T12:27:27;100174.09;;;33.53;36.72
75972;BME280;64651;47.540;19.088;2023-07-13T12:32:29;100167.81;;;34.30;34.82
75972;BME280;64651;47.540;19.088;2023-07-13T12:37:34;100168.34;;;35.15;34.37
75972;BME280;64651;47.540;19.088;2023-07-13T12:42:39;100165.78;;;35.33;32.97
75972;BME280;64651;47.540;19.088;2023-07-13T12:48:03;100155.28;;;34.40;35.00
75972;BME280;64651;47.540;19.088;2023-07-13T12:53:13;100148.91;;;36.96;31.23
75972;BME280;64651;47.540;19.088;2023-07-13T13:03:35;100151.66;;;37.44;28.84
75972;BME280;64651;47.540;19.088;2023-07-13T13:08:39;100151.78;;;36.62;31.21
75972;BME280;64651;47.540;19.088;2023-07-13T13:13:44;100162.69;;;34.99;33.02
75972;BME280;64651;47.540;19.088;2023-07-13T13:18:46;100161.22;;;32.86;35.91
75972;BME280;64651;47.540;19.088;2023-07-13T13:23:49;100140.31;;;34.65;33.68
75972;BME280;64651;47.540;19.088;2023-07-13T13:28:53;100137.72;;;36.42;31.52
75972;BME280;64651;47.540;19.088;2023-07-13T13:33:55;100134.69;;;36.24;31.31
75972;BME280;64651;47.540;19.088;2023-07-13T13:38:58;100136.28;;;35.49;31.90
75972;BME280;64651;47.540;19.088;2023-07-13T13:44:00;100134.53;;;35.26;31.82
75972;BME280;64651;47.540;19.088;2023-07-13T13:49:02;100120.56;;;34.87;33.35
75972;BME280;64651;47.540;19.088;2023-07-13T13:54:10;100127.41;;;34.89;33.24
75972;BME280;64651;47.540;19.088;2023-07-13T13:59:13;100134.94;;;35.66;32.11
75972;BME280;64651;47.540;19.088;2023-07-13T14:04:19;100125.97;;;35.52;32.40
75972;BME280;64651;47.540;19.088;2023-07-13T14:09:22;100123.62;;;34.80;33.91
75972;BME280;64651;47.540;19.088;2023-07-13T14:14:32;100134.78;;;33.05;36.79
75972;BME280;64651;47.540;19.088;2023-07-13T14:19:35;100138.44;;;32.62;37.46
75972;BME280;64651;47.540;19.088;2023-07-13T14:24:37;100142.22;;;31.59;39.49
75972;BME280;64651;47.540;19.088;2023-07-13T14:29:40;100136.16;;;31.23;40.33
75972;BME280;64651;47.540;19.088;2023-07-13T14:34:43;100136.91;;;30.59;42.12
75972;BME280;64651;47.540;19.088;2023-07-13T14:39:49;100145.69;;;30.72;42.54
75972;BME280;64651;47.540;19.088;2023-07-13T14:44:53;100162.47;;;30.11;43.48
75972;BME280;64651;47.540;19.088;2023-07-13T14:49:56;100180.59;;;29.66;44.63
75972;BME280;64651;47.540;19.088;2023-07-13T14:54:59;100176.53;;;29.67;44.37
75972;BME280;64651;47.540;19.088;2023-07-13T15:00:01;100182.50;;;29.83;44.63
75972;BME280;64651;47.540;19.088;2023-07-13T15:05:13;100188.12;;;30.01;43.95
75972;BME280;64651;47.540;19.088;2023-07-13T15:15:19;100166.53;;;29.52;45.34
75972;BME280;64651;47.540;19.088;2023-07-13T15:20:28;100182.00;;;29.33;45.06
75972;BME280;64651;47.540;19.088;2023-07-13T15:25:34;100204.44;;;28.78;46.20
75972;BME280;64651;47.540;19.088;2023-07-13T15:30:41;100195.50;;;28.69;46.56
75972;BME280;64651;47.540;19.088;2023-07-13T15:35:43;100188.25;;;28.57;46.82
75972;BME280;64651;47.540;19.088;2023-07-13T15:40:48;100196.34;;;28.34;47.36
75972;BME280;64651;47.540;19.088;2023-07-13T15:45:52;100187.03;;;28.19;47.05
75972;BME280;64651;47.540;19.088;2023-07-13T15:50:55;100185.44;;;28.14;46.88
75972;BME280;64651;47.540;19.088;2023-07-13T15:56:15;100174.47;;;28.13;47.18
75972;BME280;64651;47.540;19.088;2023-07-13T16:01:19;100162.00;;;28.17;47.32
75972;BME280;64651;47.540;19.088;2023-07-13T16:06:40;100155.50;;;28.38;46.81
75972;BME280;64651;47.540;19.088;2023-07-13T16:11:44;100185.44;;;28.21;47.23
75972;BME280;64651;47.540;19.088;2023-07-13T16:16:46;100202.81;;;28.27;47.16
75972;BME280;64651;47.540;19.088;2023-07-13T16:21:50;100212.06;;;27.92;47.77
75972;BME280;64651;47.540;19.088;2023-07-13T16:26:53;100218.91;;;27.84;48.40
75972;BME280;64651;47.540;19.088;2023-07-13T16:37:16;100213.53;;;27.51;49.08
75972;BME280;64651;47.540;19.088;2023-07-13T16:42:19;100204.97;;;27.33;49.08
75972;BME280;64651;47.540;19.088;2023-07-13T16:47:22;100201.72;;;27.24;49.37
75972;BME280;64651;47.540;19.088;2023-07-13T16:52:27;100191.66;;;27.26;49.50
75972;BME280;64651;47.540;19.088;2023-07-13T16:57:34;100195.25;;;27.20;49.79
75972;BME280;64651;47.540;19.088;2023-07-13T17:02:37;100191.62;;;27.19;50.07
75972;BME280;64651;47.540;19.088;2023-07-13T17:07:41;100189.19;;;27.18;50.15
75972;BME280;64651;47.540;19.088;2023-07-13T17:12:45;100184.69;;;27.10;50.71
75972;BME280;64651;47.540;19.088;2023-07-13T17:17:49;100183.88;;;27.05;50.66
75972;BME280;64651;47.540;19.088;2023-07-13T17:22:53;100189.06;;;26.89;51.18
75972;BME280;64651;47.540;19.088;2023-07-13T17:27:56;100181.28;;;26.79;51.62
75972;BME280;64651;47.540;19.088;2023-07-13T17:32:58;100172.37;;;26.70;52.15
75972;BME280;64651;47.540;19.088;2023-07-13T17:38:03;100184.38;;;26.60;53.02
75972;BME280;64651;47.540;19.088;2023-07-13T17:43:06;100181.12;;;26.54;53.18
75972;BME280;64651;47.540;19.088;2023-07-13T17:48:09;100212.53;;;26.49;53.70
75972;BME280;64651;47.540;19.088;2023-07-13T17:53:18;100210.53;;;26.50;51.73
75972;BME280;64651;47.540;19.088;2023-07-13T17:58:20;100206.13;;;26.52;50.75
75972;BME280;64651;47.540;19.088;2023-07-13T18:03:25;100211.34;;;26.50;50.04
75972;BME280;64651;47.540;19.088;2023-07-13T18:08:34;100219.72;;;26.40;49.27
75972;BME280;64651;47.540;19.088;2023-07-13T18:13:36;100220.28;;;26.15;49.78
75972;BME280;64651;47.540;19.088;2023-07-13T18:18:42;100227.78;;;25.97;49.27
75972;BME280;64651;47.540;19.088;2023-07-13T18:23:46;100228.62;;;25.64;48.99
75972;BME280;64651;47.540;19.088;2023-07-13T18:28:49;100236.50;;;25.52;49.52
75972;BME280;64651;47.540;19.088;2023-07-13T18:33:53;100240.34;;;25.36;49.84
75972;BME280;64651;47.540;19.088;2023-07-13T18:38:56;100244.25;;;25.28;49.94
75972;BME280;64651;47.540;19.088;2023-07-13T18:44:00;100253.78;;;25.20;49.88
75972;BME280;64651;47.540;19.088;2023-07-13T18:49:03;100254.13;;;25.15;50.42
75972;BME280;64651;47.540;19.088;2023-07-13T18:54:12;100269.94;;;25.23;48.62
75972;BME280;64651;47.540;19.088;2023-07-13T18:59:15;100269.47;;;25.18;49.12
75972;BME280;64651;47.540;19.088;2023-07-13T19:04:29;100268.81;;;25.01;49.41
75972;BME280;64651;47.540;19.088;2023-07-13T19:09:33;100269.91;;;24.93;49.80
75972;BME280;64651;47.540;19.088;2023-07-13T19:14:35;100278.63;;;24.62;49.71
75972;BME280;64651;47.540;19.088;2023-07-13T19:19:37;100287.28;;;24.50;49.59
75972;BME280;64651;47.540;19.088;2023-07-13T19:24:39;100299.31;;;24.27;49.86
75972;BME280;64651;47.540;19.088;2023-07-13T19:29:42;100303.88;;;23.94;51.99
75972;BME280;64651;47.540;19.088;2023-07-13T19:34:44;100305.06;;;23.73;52.83
75972;BME280;64651;47.540;19.088;2023-07-13T19:39:47;100317.22;;;23.58;53.22
75972;BME280;64651;47.540;19.088;2023-07-13T19:44:56;100327.12;;;23.52;53.29
75972;BME280;64651;47.540;19.088;2023-07-13T19:49:58;100338.94;;;23.61;53.32
75972;BME280;64651;47.540;19.088;2023-07-13T19:55:09;100348.69;;;23.67;52.57
75972;BME280;64651;47.540;19.088;2023-07-13T20:00:46;100340.28;;;23.67;52.46
75972;BME280;64651;47.540;19.088;2023-07-13T20:05:48;100349.91;;;23.66;53.13
75972;BME280;64651;47.540;19.088;2023-07-13T20:10:51;100357.28;;;23.74;52.32
75972;BME280;64651;47.540;19.088;2023-07-13T20:15:53;100366.75;;;23.85;54.44
75972;BME280;64651;47.540;19.088;2023-07-13T20:20:55;100373.34;;;23.93;55.24
75972;BME280;64651;47.540;19.088;2023-07-13T20:25:58;100374.75;;;24.03;56.39
75972;BME280;64651;47.540;19.088;2023-07-13T20:31:01;100379.13;;;24.00;58.13
75972;BME280;64651;47.540;19.088;2023-07-13T20:36:05;100378.75;;;24.02;60.79
75972;BME280;64651;47.540;19.088;2023-07-13T20:41:10;100372.37;;;24.05;61.32
75972;BME280;64651;47.540;19.088;2023-07-13T20:46:16;100373.56;;;24.23;61.12
75972;BME280;64651;47.540;19.088;2023-07-13T20:51:19;100378.78;;;24.21;61.06
75972;BME280;64651;47.540;19.088;2023-07-13T20:56:27;100373.38;;;24.16;62.30
75972;BME280;64651;47.540;19.088;2023-07-13T21:01:33;100359.94;;;23.86;61.76
75972;BME280;64651;47.540;19.088;2023-07-13T21:06:36;100347.62;;;23.72;62.19
75972;BME280;64651;47.540;19.088;2023-07-13T21:11:38;100343.69;;;23.57;61.55
75972;BME280;64651;47.540;19.088;2023-07-13T21:16:41;100339.34;;;23.44;61.56
75972;BME280;64651;47.540;19.088;2023-07-13T21:21:44;100325.37;;;23.28;61.36
75972;BME280;64651;47.540;19.088;2023-07-13T21:26:46;100331.41;;;23.11;61.59
75972;BME280;64651;47.540;19.088;2023-07-13T21:31:48;100327.72;;;22.91;62.03
75972;BME280;64651;47.540;19.088;2023-07-13T21:36:50;100330.62;;;22.79;62.37
75972;BME280;64651;47.540;19.088;2023-07-13T21:41:53;100342.13;;;22.74;62.95
75972;BME280;64651;47.540;19.088;2023-07-13T21:46:56;100347.34;;;22.76;62.37
75972;BME280;64651;47.540;19.088;2023-07-13T21:51:58;100361.38;;;22.76;62.40
75972;BME280;64651;47.540;19.088;2023-07-13T21:57:00;100361.91;;;22.81;62.09
75972;BME280;64651;47.540;19.088;2023-07-13T22:02:03;100363.13;;;22.80;61.70
75972;BME280;64651;47.540;19.088;2023-07-13T22:07:09;100369.13;;;22.66;62.80
75972;BME280;64651;47.540;19.088;2023-07-13T22:12:12;100377.91;;;22.49;64.13
75972;BME280;64651;47.540;19.088;2023-07-13T22:17:14;100384.69;;;22.48;64.93
75972;BME280;64651;47.540;19.088;2023-07-13T22:22:21;100388.56;;;22.44;65.09
75972;BME280;64651;47.540;19.088;2023-07-13T22:27:23;100393.25;;;22.40;65.44
75972;BME280;64651;47.540;19.088;2023-07-13T22:32:30;100391.19;;;22.37;65.70
75972;BME280;64651;47.540;19.088;2023-07-13T22:37:34;100389.19;;;22.37;65.73
75972;BME280;64651;47.540;19.088;2023-07-13T22:42:37;100395.63;;;22.38;65.96
75972;BME280;64651;47.540;19.088;2023-07-13T22:47:40;100412.44;;;22.38;66.32
75972;BME280;64651;47.540;19.088;2023-07-13T22:52:43;100396.87;;;22.40;66.36
75972;BME280;64651;47.540;19.088;2023-07-13T22:57:47;100401.22;;;22.38;66.91
75972;BME280;64651;47.540;19.088;2023-07-13T23:02:52;100402.66;;;22.32;67.67
75972;BME280;64651;47.540;19.088;2023-07-13T23:07:55;100400.00;;;22.23;68.41
75972;BME280;64651;47.540;19.088;2023-07-13T23:12:57;100401.34;;;22.13;68.83
75972;BME280;64651;47.540;19.088;2023-07-13T23:18:05;100405.31;;;22.12;69.24
75972;BME280;64651;47.540;19.088;2023-07-13T23:23:15;100410.97;;;22.00;69.95
75972;BME280;64651;47.540;19.088;2023-07-13T23:28:18;100410.16;;;21.87;70.66
75972;BME280;64651;47.540;19.088;2023-07-13T23:33:23;100410.47;;;21.70;71.66
75972;BME280;64651;47.540;19.088;2023-07-13T23:38:26;100410.03;;;21.44;72.83
75972;BME280;64651;47.540;19.088;2023-07-13T23:43:28;100424.16;;;21.23;73.88
75972;BME280;64651;47.540;19.088;2023-07-13T23:48:30;100438.97;;;21.24;74.33
75972;BME280;64651;47.540;19.088;2023-07-13T23:53:32;100436.53;;;21.22;74.37
75972;BME280;64651;47.540;19.088;2023-07-13T23:58:38;100427.19;;;21.18;74.71
